createdAt,value
2018-08-17T00:01:30.620Z,20.05
2018-08-17T00:03:59.404Z,20.09
2018-08-17T00:06:28.141Z,19.97
2018-08-17T00:08:56.924Z,19.92
2018-08-17T00:11:25.649Z,19.84
2018-08-17T00:13:54.476Z,19.83
2018-08-17T00:16:23.213Z,19.80
2018-08-17T00:18:51.961Z,19.77
2018-08-17T00:21:20.737Z,19.75
2018-08-17T00:23:49.469Z,19.74
2018-08-17T00:26:18.274Z,19.75
2018-08-17T00:28:47.025Z,19.79
2018-08-17T00:31:15.750Z,19.72
2018-08-17T00:33:44.505Z,19.59
2018-08-17T00:36:13.251Z,19.65
2018-08-17T00:38:42.009Z,19.57
2018-08-17T00:41:10.774Z,19.57
2018-08-17T00:43:39.586Z,19.57
2018-08-17T00:46:08.855Z,19.52
2018-08-17T00:48:37.633Z,19.64
2018-08-17T00:51:06.903Z,19.58
2018-08-17T00:53:35.671Z,19.52
2018-08-17T00:56:04.509Z,19.42
2018-08-17T00:58:33.397Z,19.35
2018-08-17T01:01:02.269Z,19.28
2018-08-17T01:03:31.283Z,19.32
2018-08-17T01:06:06.480Z,19.42
2018-08-17T01:08:35.262Z,19.32
2018-08-17T01:11:04.019Z,19.36
2018-08-17T01:13:32.760Z,19.40
2018-08-17T01:16:01.556Z,19.28
2018-08-17T01:18:30.293Z,19.19
2018-08-17T01:20:59.033Z,19.26
2018-08-17T01:23:27.808Z,19.32
2018-08-17T01:25:56.541Z,19.35
2018-08-17T01:28:25.507Z,19.32
2018-08-17T01:30:54.291Z,19.28
2018-08-17T01:33:23.005Z,19.15
2018-08-17T01:35:51.728Z,19.27
2018-08-17T01:38:20.442Z,19.30
2018-08-17T01:40:49.177Z,19.29
2018-08-17T01:43:17.916Z,19.26
2018-08-17T01:45:46.649Z,19.13
2018-08-17T01:48:15.384Z,19.15
2018-08-17T01:50:44.094Z,19.15
2018-08-17T01:53:12.832Z,19.09
2018-08-17T01:55:41.553Z,19.04
2018-08-17T01:58:10.318Z,19.07
2018-08-17T02:00:39.099Z,19.01
2018-08-17T02:03:07.955Z,18.99
2018-08-17T02:05:36.678Z,19.03
2018-08-17T02:08:05.425Z,19.14
2018-08-17T02:10:34.172Z,18.97
2018-08-17T02:13:02.909Z,18.71
2018-08-17T02:15:31.607Z,18.67
2018-08-17T02:18:00.340Z,18.61
2018-08-17T02:20:29.098Z,18.54
2018-08-17T02:22:57.854Z,18.70
2018-08-17T02:25:26.617Z,18.63
2018-08-17T02:27:55.338Z,18.54
2018-08-17T02:30:24.063Z,18.48
2018-08-17T02:32:52.789Z,18.51
2018-08-17T02:35:21.586Z,18.51
2018-08-17T02:37:50.322Z,18.53
2018-08-17T02:40:19.254Z,18.69
2018-08-17T02:42:47.988Z,18.73
2018-08-17T02:45:16.734Z,18.71
2018-08-17T02:47:45.433Z,18.83
2018-08-17T02:50:14.154Z,18.74
2018-08-17T02:52:42.875Z,18.66
2018-08-17T02:55:11.599Z,18.65
2018-08-17T02:57:40.363Z,18.58
2018-08-17T03:00:09.176Z,18.50
2018-08-17T03:02:37.936Z,18.30
2018-08-17T03:05:06.701Z,18.43
2018-08-17T03:07:35.438Z,18.45
2018-08-17T03:10:04.223Z,18.47
2018-08-17T03:12:33.185Z,18.46
2018-08-17T03:15:02.069Z,18.35
2018-08-17T03:17:30.971Z,18.29
2018-08-17T03:19:59.875Z,18.32
2018-08-17T03:22:28.744Z,18.34
2018-08-17T03:24:57.598Z,18.36
2018-08-17T03:27:26.446Z,18.38
2018-08-17T03:29:55.318Z,18.29
2018-08-17T03:32:24.183Z,18.25
2018-08-17T03:34:53.073Z,18.21
2018-08-17T03:37:21.947Z,18.23
2018-08-17T03:39:50.809Z,18.19
2018-08-17T03:42:19.529Z,18.32
2018-08-17T03:44:48.267Z,18.38
2018-08-17T03:47:17.060Z,18.42
2018-08-17T03:49:45.993Z,18.53
2018-08-17T03:52:14.727Z,18.54
2018-08-17T03:54:43.467Z,18.60
2018-08-17T03:57:12.235Z,18.60
2018-08-17T03:59:41.014Z,18.77
2018-08-17T04:02:09.770Z,18.86
2018-08-17T04:04:38.531Z,19.35
2018-08-17T04:07:07.289Z,20.14
2018-08-17T04:09:36.029Z,20.97
2018-08-17T04:12:04.790Z,21.85
2018-08-17T04:14:33.500Z,22.76
2018-08-17T04:17:02.223Z,23.27
2018-08-17T04:19:30.965Z,23.99
2018-08-17T04:21:59.685Z,24.85
2018-08-17T04:24:28.419Z,25.61
2018-08-17T04:26:57.113Z,26.20
2018-08-17T04:29:25.801Z,26.55
2018-08-17T04:32:00.645Z,26.61
2018-08-17T04:34:29.366Z,27.28
2018-08-17T04:36:58.294Z,27.96
2018-08-17T04:39:27.086Z,28.56
2018-08-17T04:41:55.836Z,28.73
2018-08-17T04:44:24.544Z,29.03
2018-08-17T04:46:53.246Z,29.39
2018-08-17T04:49:21.992Z,29.52
2018-08-17T04:51:50.785Z,29.78
2018-08-17T04:54:19.486Z,29.65
2018-08-17T04:56:48.182Z,30.04
2018-08-17T04:59:16.894Z,30.29
2018-08-17T05:01:45.654Z,30.65
2018-08-17T05:04:14.528Z,30.52
2018-08-17T05:06:43.289Z,30.98
2018-08-17T05:09:12.016Z,31.36
2018-08-17T05:11:40.738Z,31.29
2018-08-17T05:14:09.493Z,32.78
2018-08-17T05:16:38.217Z,33.52
2018-08-17T05:19:06.966Z,33.95
2018-08-17T05:21:35.720Z,34.33
2018-08-17T05:24:04.638Z,35.16
2018-08-17T05:26:33.499Z,34.58
2018-08-17T05:29:02.245Z,34.96
2018-08-17T05:31:30.977Z,34.57
2018-08-17T05:33:59.695Z,35.03
2018-08-17T05:36:28.443Z,34.97
2018-08-17T05:38:57.936Z,36.03
2018-08-17T05:41:26.752Z,35.95
2018-08-17T05:43:55.486Z,35.02
2018-08-17T05:46:24.311Z,35.09
2018-08-17T05:48:53.161Z,35.27
2018-08-17T05:51:21.997Z,35.56
2018-08-17T05:53:51.134Z,36.32
2018-08-17T05:56:19.878Z,36.33
2018-08-17T05:58:49.341Z,35.73
2018-08-17T06:01:18.758Z,35.99
2018-08-17T06:03:47.571Z,36.68
2018-08-17T06:06:16.343Z,36.78
2018-08-17T06:08:45.068Z,37.34
2018-08-17T06:11:14.489Z,37.63
2018-08-17T06:13:43.167Z,37.15
2018-08-17T06:16:12.081Z,37.96
2018-08-17T06:18:41.207Z,38.72
2018-08-17T06:21:09.973Z,39.29
2018-08-17T06:23:38.849Z,38.74
2018-08-17T06:26:07.728Z,37.75
2018-08-17T06:28:36.566Z,37.37
2018-08-17T06:31:05.286Z,37.48
2018-08-17T06:33:34.011Z,37.92
2018-08-17T06:36:02.909Z,37.40
2018-08-17T06:38:31.605Z,37.52
2018-08-17T06:41:00.422Z,37.21
2018-08-17T06:43:29.568Z,38.20
2018-08-17T06:45:58.262Z,38.54
2018-08-17T06:48:27.011Z,38.64
2018-08-17T06:50:55.764Z,38.55
2018-08-17T06:53:24.693Z,38.70
2018-08-17T06:55:53.394Z,38.39
2018-08-17T06:58:22.613Z,38.61
2018-08-17T07:00:51.978Z,38.02
2018-08-17T07:03:20.870Z,38.40
2018-08-17T07:05:49.993Z,38.67
2018-08-17T07:08:18.757Z,37.88
2018-08-17T07:10:47.484Z,36.81
2018-08-17T07:13:16.702Z,37.00
2018-08-17T07:15:45.874Z,37.44
2018-08-17T07:18:15.073Z,38.06
2018-08-17T07:20:44.369Z,37.21
2018-08-17T07:23:13.661Z,36.97
2018-08-17T07:25:43.290Z,37.90
2018-08-17T07:28:12.701Z,37.26
2018-08-17T07:30:41.676Z,36.58
2018-08-17T07:33:10.902Z,37.68
2018-08-17T07:35:40.177Z,38.10
2018-08-17T07:38:09.362Z,38.39
2018-08-17T07:40:38.473Z,36.67
2018-08-17T07:43:08.052Z,36.77
2018-08-17T07:45:37.563Z,37.28
2018-08-17T07:48:06.771Z,36.78
2018-08-17T07:50:35.394Z,35.66
2018-08-17T07:53:04.106Z,35.60
2018-08-17T07:55:32.810Z,35.13
2018-08-17T07:58:01.563Z,33.83
2018-08-17T08:00:30.287Z,35.57
2018-08-17T08:02:59.179Z,36.50
2018-08-17T08:05:28.274Z,37.39
2018-08-17T08:07:57.543Z,38.12
2018-08-17T08:10:26.912Z,38.70
2018-08-17T08:12:55.686Z,39.33
2018-08-17T08:15:24.405Z,38.84
2018-08-17T08:17:53.513Z,37.19
2018-08-17T08:20:32.372Z,37.83
2018-08-17T08:23:12.193Z,37.98
2018-08-17T08:25:41.334Z,38.06
2018-08-17T08:28:10.073Z,37.55
2018-08-17T08:30:38.794Z,38.72
2018-08-17T08:33:07.529Z,38.64
2018-08-17T08:35:36.239Z,38.41
2018-08-17T08:38:04.947Z,38.86
2018-08-17T08:40:33.703Z,39.00
2018-08-17T08:43:02.401Z,38.95
2018-08-17T08:45:31.127Z,39.12
2018-08-17T08:47:59.829Z,40.11
2018-08-17T08:50:28.521Z,40.14
2018-08-17T08:52:57.473Z,39.77
2018-08-17T08:55:26.331Z,38.80
2018-08-17T08:57:55.035Z,38.78
2018-08-17T09:00:23.831Z,38.29
2018-08-17T09:02:52.541Z,38.64
2018-08-17T09:05:21.285Z,38.29
2018-08-17T09:07:49.970Z,39.14
2018-08-17T09:10:18.670Z,38.76
2018-08-17T09:12:47.369Z,38.99
2018-08-17T09:15:16.049Z,39.22
2018-08-17T09:17:45.094Z,39.08
2018-08-17T09:20:15.749Z,39.68
2018-08-17T09:22:44.704Z,39.14
2018-08-17T09:25:13.693Z,39.11
2018-08-17T09:27:42.397Z,38.23
2018-08-17T09:30:12.829Z,40.15
2018-08-17T09:32:41.790Z,39.23
2018-08-17T09:35:11.709Z,40.56
2018-08-17T09:37:40.481Z,39.07
2018-08-17T09:40:10.190Z,38.68
2018-08-17T09:42:38.917Z,37.97
2018-08-17T09:45:09.634Z,38.26
2018-08-17T09:47:38.394Z,37.15
2018-08-17T09:50:09.361Z,38.02
2018-08-17T09:52:38.278Z,38.99
2018-08-17T09:55:07.034Z,38.55
2018-08-17T09:57:36.099Z,37.94
2018-08-17T10:00:06.346Z,39.69
2018-08-17T10:02:40.342Z,40.87
2018-08-17T10:05:14.093Z,39.93
2018-08-17T10:07:48.074Z,39.06
2018-08-17T10:10:18.398Z,38.72
2018-08-17T10:12:48.327Z,39.81
2018-08-17T10:15:17.115Z,40.27
2018-08-17T10:17:45.832Z,40.47
2018-08-17T10:20:22.726Z,39.77
2018-08-17T10:22:51.446Z,39.83
2018-08-17T10:25:23.420Z,40.69
2018-08-17T10:27:54.544Z,40.56
2018-08-17T10:30:23.765Z,40.14
2018-08-17T10:32:55.424Z,39.22
2018-08-17T10:35:26.369Z,38.09
2018-08-17T10:37:57.498Z,36.95
2018-08-17T10:40:26.619Z,36.89
2018-08-17T10:42:55.372Z,35.92
2018-08-17T10:45:25.547Z,36.69
2018-08-17T10:47:54.714Z,38.06
2018-08-17T10:50:24.805Z,39.95
2018-08-17T10:52:54.773Z,40.36
2018-08-17T10:55:24.609Z,41.46
2018-08-17T10:57:53.382Z,42.16
2018-08-17T11:00:22.755Z,41.93
2018-08-17T11:02:52.353Z,42.13
2018-08-17T11:05:21.065Z,40.73
2018-08-17T11:07:50.037Z,40.55
2018-08-17T11:10:18.728Z,41.35
2018-08-17T11:12:48.027Z,40.90
2018-08-17T11:15:16.719Z,40.55
2018-08-17T11:17:46.246Z,39.16
2018-08-17T11:20:16.858Z,38.97
2018-08-17T11:22:45.578Z,39.82
2018-08-17T11:25:14.361Z,40.35
2018-08-17T11:27:43.066Z,40.41
2018-08-17T11:30:13.388Z,41.00
2018-08-17T11:32:42.736Z,40.68
2018-08-17T11:35:11.492Z,39.38
2018-08-17T11:37:40.213Z,40.42
2018-08-17T11:40:10.418Z,40.04
2018-08-17T11:42:41.425Z,41.19
2018-08-17T11:45:12.274Z,41.55
2018-08-17T11:47:42.033Z,41.65
2018-08-17T11:50:13.378Z,41.29
2018-08-17T11:52:51.107Z,39.60
2018-08-17T11:55:20.223Z,41.54
2018-08-17T11:57:48.965Z,41.29
2018-08-17T12:00:17.807Z,42.17
2018-08-17T12:02:46.733Z,41.14
2018-08-17T12:05:15.485Z,41.78
2018-08-17T12:07:45.033Z,40.96
2018-08-17T12:10:13.739Z,39.90
2018-08-17T12:12:43.246Z,38.85
2018-08-17T12:15:12.826Z,38.96
2018-08-17T12:17:41.620Z,40.19
2018-08-17T12:20:10.353Z,39.36
2018-08-17T12:22:39.071Z,39.83
2018-08-17T12:25:08.891Z,39.99
2018-08-17T12:27:37.541Z,40.61
2018-08-17T12:30:07.563Z,40.92
2018-08-17T12:32:36.292Z,41.62
2018-08-17T12:35:05.077Z,40.66
2018-08-17T12:37:33.796Z,41.14
2018-08-17T12:40:02.571Z,40.77
2018-08-17T12:42:35.308Z,40.99
2018-08-17T12:45:09.113Z,40.19
2018-08-17T12:47:37.805Z,39.95
2018-08-17T12:50:06.507Z,39.49
2018-08-17T12:52:35.233Z,39.78
2018-08-17T12:55:03.991Z,38.55
2018-08-17T12:57:37.897Z,38.88
2018-08-17T13:00:06.614Z,39.55
2018-08-17T13:02:35.314Z,39.64
2018-08-17T13:05:04.065Z,38.24
2018-08-17T13:07:32.778Z,37.69
2018-08-17T13:10:01.523Z,36.73
2018-08-17T13:12:30.331Z,36.12
2018-08-17T13:14:59.051Z,36.00
2018-08-17T13:17:33.841Z,35.97
2018-08-17T13:20:02.561Z,35.99
2018-08-17T13:22:31.279Z,36.13
2018-08-17T13:24:59.986Z,35.82
2018-08-17T13:27:28.799Z,35.91
2018-08-17T13:29:57.588Z,35.76
2018-08-17T13:32:26.293Z,35.00
2018-08-17T13:34:55.003Z,34.43
2018-08-17T13:37:23.751Z,35.10
2018-08-17T13:39:52.471Z,35.39
2018-08-17T13:42:21.282Z,35.41
2018-08-17T13:44:49.934Z,35.50
2018-08-17T13:47:18.652Z,35.76
2018-08-17T13:49:47.339Z,35.56
2018-08-17T13:52:16.069Z,35.59
2018-08-17T13:54:44.834Z,35.42
2018-08-17T13:57:13.788Z,34.95
2018-08-17T13:59:42.484Z,34.73
2018-08-17T14:02:11.319Z,34.81
2018-08-17T14:04:40.011Z,34.78
2018-08-17T14:07:08.760Z,34.78
2018-08-17T14:09:37.502Z,34.77
2018-08-17T14:12:06.645Z,34.63
2018-08-17T14:14:35.344Z,34.37
2018-08-17T14:17:04.073Z,34.41
2018-08-17T14:19:32.825Z,34.34
2018-08-17T14:22:01.578Z,34.22
2018-08-17T14:24:30.593Z,34.12
2018-08-17T14:26:59.350Z,33.85
2018-08-17T14:29:28.074Z,34.07
2018-08-17T14:31:56.905Z,34.09
2018-08-17T14:34:25.794Z,34.12
2018-08-17T14:36:54.439Z,33.78
2018-08-17T14:39:23.203Z,33.58
2018-08-17T14:41:57.391Z,33.80
2018-08-17T14:44:28.739Z,33.76
2018-08-17T14:46:57.473Z,34.03
2018-08-17T14:49:26.811Z,34.36
2018-08-17T14:51:55.620Z,34.61
2018-08-17T14:54:24.401Z,34.52
2018-08-17T14:56:55.701Z,34.25
2018-08-17T14:59:27.172Z,32.55
2018-08-17T15:01:58.599Z,29.62
2018-08-17T15:04:27.397Z,28.41
2018-08-17T15:06:56.196Z,27.78
2018-08-17T15:09:24.913Z,27.03
2018-08-17T15:11:53.625Z,26.47
2018-08-17T15:14:22.378Z,25.53
2018-08-17T15:16:51.138Z,25.08
2018-08-17T15:19:19.862Z,24.71
2018-08-17T15:21:48.597Z,24.68
2018-08-17T15:24:17.318Z,24.38
2018-08-17T15:26:46.199Z,23.30
2018-08-17T15:29:14.966Z,22.01
2018-08-17T15:31:43.752Z,21.29
2018-08-17T15:34:12.613Z,20.69
2018-08-17T15:36:41.378Z,20.39
2018-08-17T15:39:10.227Z,20.30
2018-08-17T15:41:46.490Z,20.27
2018-08-17T15:44:23.136Z,20.19
2018-08-17T15:46:51.941Z,20.23
2018-08-17T15:49:30.663Z,20.24
2018-08-17T15:52:00.243Z,20.29
2018-08-17T15:54:29.142Z,20.37
2018-08-17T15:56:58.082Z,20.49
2018-08-17T15:59:26.826Z,20.46
2018-08-17T16:01:55.617Z,20.49
2018-08-17T16:04:24.469Z,20.56
2018-08-17T16:06:53.212Z,20.61
2018-08-17T16:09:22.166Z,20.61
2018-08-17T16:11:50.910Z,20.64
2018-08-17T16:14:19.676Z,20.75
2018-08-17T16:16:48.409Z,20.78
2018-08-17T16:19:17.157Z,20.80
2018-08-17T16:21:45.933Z,20.73
2018-08-17T16:24:14.806Z,20.67
2018-08-17T16:26:43.623Z,20.62
2018-08-17T16:29:12.367Z,20.69
2018-08-17T16:31:42.265Z,20.82
2018-08-17T16:34:11.258Z,20.82
2018-08-17T16:36:42.096Z,20.83
2018-08-17T16:39:14.597Z,20.79
2018-08-17T16:41:43.457Z,21.00
2018-08-17T16:44:12.578Z,20.99
2018-08-17T16:46:42.347Z,20.94
2018-08-17T16:49:11.150Z,20.92
2018-08-17T16:51:40.118Z,20.93
2018-08-17T16:54:08.888Z,20.87
2018-08-17T16:56:37.882Z,20.81
2018-08-17T16:59:06.889Z,20.56
2018-08-17T17:01:35.581Z,20.39
2018-08-17T17:04:04.699Z,20.28
2018-08-17T17:06:33.505Z,20.22
2018-08-17T17:09:06.319Z,20.14
2018-08-17T17:11:35.316Z,20.19
2018-08-17T17:14:04.124Z,20.33
2018-08-17T17:16:50.087Z,20.36
2018-08-17T17:19:22.575Z,20.44
2018-08-17T17:21:52.143Z,20.49
2018-08-17T17:24:23.286Z,20.54
2018-08-17T17:26:53.162Z,20.50
2018-08-17T17:29:22.128Z,20.54
2018-08-17T17:31:51.765Z,20.70
2018-08-17T17:34:20.513Z,20.72
2018-08-17T17:36:49.291Z,20.85
2018-08-17T17:39:18.058Z,20.80
2018-08-17T17:41:46.818Z,20.82
2018-08-17T17:44:15.562Z,20.73
2018-08-17T17:46:44.271Z,20.71
2018-08-17T17:49:13.024Z,20.58
2018-08-17T17:51:41.753Z,20.47
2018-08-17T17:54:10.645Z,20.41
2018-08-17T17:56:39.449Z,20.37
2018-08-17T17:59:14.853Z,20.43
2018-08-17T18:01:43.645Z,20.39
2018-08-17T18:04:12.356Z,20.50
2018-08-17T18:06:41.080Z,20.52
2018-08-17T18:09:09.878Z,20.63
2018-08-17T18:11:38.754Z,20.77
2018-08-17T18:14:07.837Z,20.73
2018-08-17T18:16:37.820Z,20.60
2018-08-17T18:19:06.634Z,20.61
2018-08-17T18:21:35.414Z,20.73
2018-08-17T18:24:09.197Z,20.81
2018-08-17T18:26:38.081Z,20.85
2018-08-17T18:29:07.268Z,20.74
2018-08-17T18:31:36.066Z,20.63
2018-08-17T18:34:04.826Z,20.63
2018-08-17T18:36:33.565Z,20.68
2018-08-17T18:39:02.613Z,20.60
2018-08-17T18:41:31.453Z,20.65
2018-08-17T18:44:00.228Z,20.74
2018-08-17T18:46:29.047Z,20.78
2018-08-17T18:48:57.785Z,20.77
2018-08-17T18:51:26.557Z,20.77
2018-08-17T18:53:55.332Z,20.72
2018-08-17T18:56:24.155Z,20.53
2018-08-17T18:58:52.952Z,20.52
2018-08-17T19:01:21.804Z,20.61
2018-08-17T19:03:50.560Z,20.63
2018-08-17T19:06:19.349Z,20.62
2018-08-17T19:08:48.109Z,20.54
2018-08-17T19:11:16.890Z,20.49
2018-08-17T19:13:45.681Z,20.46
2018-08-17T19:16:14.525Z,20.49
2018-08-17T19:18:43.313Z,20.45
2018-08-17T19:21:13.717Z,20.45
2018-08-17T19:23:42.584Z,20.28
2018-08-17T19:26:11.997Z,19.96
2018-08-17T19:28:40.825Z,20.17
2018-08-17T19:31:09.638Z,20.09
2018-08-17T19:33:38.431Z,20.19
2018-08-17T19:36:07.368Z,20.28
2018-08-17T19:38:38.817Z,20.20
2018-08-17T19:41:07.627Z,20.28
2018-08-17T19:43:36.439Z,20.25
2018-08-17T19:46:05.559Z,20.32
2018-08-17T19:48:34.551Z,20.33
2018-08-17T19:51:07.476Z,20.43
2018-08-17T19:53:36.473Z,20.39
2018-08-17T19:56:05.373Z,20.38
2018-08-17T19:58:34.241Z,20.31
2018-08-17T20:01:03.138Z,20.21
2018-08-17T20:03:31.961Z,20.27
2018-08-17T20:06:00.914Z,20.41
2018-08-17T20:08:29.745Z,20.43
2018-08-17T20:10:58.637Z,20.27
2018-08-17T20:13:27.382Z,20.48
2018-08-17T20:15:56.153Z,20.48
2018-08-17T20:18:24.870Z,20.33
2018-08-17T20:20:53.618Z,20.42
2018-08-17T20:23:22.406Z,20.28
2018-08-17T20:25:51.266Z,20.22
2018-08-17T20:28:19.981Z,20.11
2018-08-17T20:30:48.713Z,19.96
2018-08-17T20:33:21.536Z,19.85
2018-08-17T20:35:50.883Z,19.89
2018-08-17T20:38:19.621Z,19.92
2018-08-17T20:40:48.399Z,19.98
2018-08-17T20:43:17.140Z,19.94
2018-08-17T20:45:45.856Z,19.75
2018-08-17T20:48:14.557Z,19.83
2018-08-17T20:50:43.258Z,19.83
2018-08-17T20:53:11.990Z,20.10
2018-08-17T20:55:40.736Z,20.22
2018-08-17T20:58:09.576Z,20.08
2018-08-17T21:00:38.419Z,19.98
2018-08-17T21:03:07.354Z,19.97
2018-08-17T21:05:36.220Z,19.91
2018-08-17T21:08:04.934Z,19.96
2018-08-17T21:10:33.629Z,20.08
2018-08-17T21:13:02.342Z,20.16
2018-08-17T21:15:31.120Z,20.00
2018-08-17T21:17:59.816Z,19.82
2018-08-17T21:20:28.519Z,19.81
2018-08-17T21:22:57.237Z,19.76
2018-08-17T21:25:25.950Z,19.66
2018-08-17T21:27:54.701Z,19.67
2018-08-17T21:30:23.623Z,19.77
2018-08-17T21:32:52.361Z,19.78
2018-08-17T21:35:21.069Z,19.68
2018-08-17T21:37:49.838Z,19.80
2018-08-17T21:40:28.295Z,19.75
2018-08-17T21:42:58.198Z,19.57
2018-08-17T21:45:27.028Z,19.61
2018-08-17T21:47:55.800Z,19.71
2018-08-17T21:50:24.529Z,19.94
2018-08-17T21:52:53.273Z,19.80
2018-08-17T21:55:22.112Z,19.58
2018-08-17T21:57:50.817Z,19.52
2018-08-17T22:00:26.193Z,19.44
2018-08-17T22:02:54.906Z,19.41
2018-08-17T22:05:33.021Z,19.40
2018-08-17T22:08:01.811Z,19.44
2018-08-17T22:10:31.016Z,19.51
2018-08-17T22:12:59.710Z,19.51
2018-08-17T22:15:30.017Z,19.49
2018-08-17T22:17:58.754Z,19.59
2018-08-17T22:20:27.441Z,19.74
2018-08-17T22:22:56.209Z,19.70
2018-08-17T22:25:24.909Z,19.62
2018-08-17T22:27:53.608Z,19.64
2018-08-17T22:30:25.946Z,19.61
2018-08-17T22:32:54.637Z,19.56
2018-08-17T22:35:23.465Z,19.59
2018-08-17T22:37:52.198Z,19.49
2018-08-17T22:40:20.997Z,19.56
2018-08-17T22:42:50.711Z,19.44
2018-08-17T22:45:19.435Z,19.47
2018-08-17T22:47:48.158Z,19.46
2018-08-17T22:50:16.951Z,19.31
2018-08-17T22:52:45.667Z,19.26
2018-08-17T22:55:14.414Z,19.27
2018-08-17T22:57:43.108Z,19.29
2018-08-17T23:00:20.059Z,19.35
2018-08-17T23:02:50.001Z,19.23
2018-08-17T23:05:21.980Z,19.11
2018-08-17T23:07:50.772Z,19.23
2018-08-17T23:10:22.616Z,19.24
2018-08-17T23:12:52.312Z,19.23
2018-08-17T23:15:21.010Z,19.26
2018-08-17T23:17:51.309Z,19.19
2018-08-17T23:20:25.146Z,19.21
2018-08-17T23:22:56.017Z,19.20
2018-08-17T23:25:24.708Z,19.16
2018-08-17T23:27:53.660Z,19.09
2018-08-17T23:30:22.392Z,19.05
2018-08-17T23:32:51.187Z,19.00
2018-08-17T23:35:19.972Z,18.99
2018-08-17T23:37:48.835Z,19.02
2018-08-17T23:40:17.581Z,19.13
2018-08-17T23:42:46.433Z,19.27
2018-08-17T23:45:16.409Z,19.30
2018-08-17T23:47:45.169Z,19.35
2018-08-17T23:50:14.964Z,19.32
2018-08-17T23:52:44.302Z,19.23
2018-08-17T23:55:15.861Z,19.14
2018-08-17T23:57:44.552Z,19.06
